Terminal Aerodrome Forecast
Issued by NWS Corpus Christi, TX

Home | Current Version | Previous Version | Text Only | Print | Product List | Glossary On
Versions: 1 2 3 4 5 6 7 8 9 10 11 12 13 14 15 16
000
FTUS44 KCRP 011400 AAA
TAFVCT
TAF AMD
KVCT 011400Z 0114/0212 36008KT 1SM -RA BR OVC003
      TEMPO 0114/0118 1/2SM FG OVC002
     FM011800 36008KT 3SM -RA BR OVC005
     FM020200 36006KT 2SM -DZ BR OVC003=

USA.gov is the U.S. government's official web portal to all federal, state and local government web resources and services.